Time;durP1;ratioP1;P1;durP2;ratioP2;P2;SDS_P1;SDS_P2;PMS_P1;PMS_P2;Temp;Humidity;BMP_temperature;BMP_pressure;BME280_temperature;BME280_humidity;BME280_pressure;Samples;Min_cycle;Max_cycle;Signal;HPM_P1;HPM_P2
2023/10/18 00:00:25;;;;;;;4.97;4.03;;;2.80;99.90;2.40;100771.00;;;;5004211;27;93383;-63
2023/10/18 00:02:54;;;;;;;6.20;4.10;;;2.70;99.90;2.40;100769.00;;;;5006015;27;94050;-63
2023/10/18 00:05:21;;;;;;;4.30;3.47;;;2.70;99.90;2.40;100778.00;;;;5006344;27;93006;-65
2023/10/18 00:07:56;;;;;;;5.47;4.33;;;2.70;99.90;2.30;100767.00;;;;5005166;27;92691;-63
2023/10/18 00:10:22;;;;;;;5.67;3.90;;;2.70;99.90;2.30;100762.00;;;;5009559;27;92633;-63
2023/10/18 00:12:48;;;;;;;5.03;3.13;;;2.50;99.90;2.20;100759.00;;;;5004647;27;92744;-63
2023/10/18 00:15:14;;;;;;;8.07;5.03;;;2.50;99.90;2.20;100763.00;;;;5002622;27;95397;-63
2023/10/18 00:17:40;;;;;;;5.10;4.00;;;2.50;99.90;2.10;100772.00;;;;4993646;27;106043;-63
2023/10/18 00:20:19;;;;;;;7.23;5.07;;;2.50;99.90;2.10;100761.00;;;;5003592;27;123119;-64
2023/10/18 00:22:45;;;;;;;4.07;2.97;;;2.40;99.90;2.00;100772.00;;;;5006406;27;92972;-63
2023/10/18 00:25:12;;;;;;;6.87;4.83;;;2.40;99.90;2.00;100773.00;;;;5002246;27;111614;-63
2023/10/18 00:27:38;;;;;;;7.70;5.37;;;2.40;99.90;2.00;100773.00;;;;5007998;27;92906;-64
2023/10/18 00:30:12;;;;;;;4.93;4.00;;;2.30;99.90;1.90;100777.00;;;;5004492;27;94708;-63
2023/10/18 00:32:39;;;;;;;5.97;4.60;;;2.30;99.90;1.90;100778.00;;;;4986532;27;92961;-63
2023/10/18 00:35:16;;;;;;;6.27;4.30;;;2.20;99.90;1.80;100780.00;;;;5006035;27;92346;-64
2023/10/18 00:37:43;;;;;;;4.50;3.23;;;2.20;99.90;1.80;100787.00;;;;5006295;27;92592;-63
2023/10/18 00:43:22;;;;;;;4.40;3.87;;;2.20;99.90;1.80;100775.00;;;;5006759;27;93931;-63
2023/10/18 00:45:53;;;;;;;8.43;5.07;;;2.10;99.90;1.70;100767.00;;;;5001954;27;93091;-64
2023/10/18 00:48:26;;;;;;;8.63;5.03;;;2.10;99.90;1.60;100769.00;;;;5009238;27;92858;-64
2023/10/18 00:50:55;;;;;;;7.63;4.70;;;2.00;99.90;1.50;100767.00;;;;4995740;27;93705;-64
2023/10/18 00:53:31;;;;;;;4.80;4.07;;;1.90;99.90;1.40;100762.00;;;;5003022;27;93063;-64
2023/10/18 00:56:01;;;;;;;7.80;4.67;;;1.70;99.90;1.30;100765.00;;;;5007453;27;92810;-64
2023/10/18 00:58:29;;;;;;;5.53;3.87;;;1.70;99.90;1.20;100752.00;;;;5005692;27;93214;-64
2023/10/18 01:00:56;;;;;;;5.90;3.90;;;2.10;99.90;1.10;100737.00;;;;5005663;27;92936;-64
2023/10/18 01:03:29;;;;;;;5.33;4.20;;;1.50;99.90;1.10;100742.00;;;;5003545;27;93250;-65
2023/10/18 01:06:24;;;;;;;5.23;4.23;;;1.50;99.90;1.10;100741.00;;;;4996994;27;92719;-64
2023/10/18 01:08:50;;;;;;;5.27;4.00;;;1.50;99.90;1.20;100739.00;;;;5003014;27;93888;-64
2023/10/18 01:11:23;;;;;;;7.03;3.83;;;1.60;99.90;1.20;100726.00;;;;4992357;27;93773;-65
2023/10/18 01:13:49;;;;;;;6.30;4.37;;;1.50;99.90;1.20;100727.00;;;;4992977;27;92695;-65
2023/10/18 01:16:23;;;;;;;8.00;4.77;;;1.60;99.90;1.20;100725.00;;;;4985543;27;110552;-65
2023/10/18 01:18:51;;;;;;;5.67;3.70;;;1.60;99.90;1.20;100722.00;;;;4988658;27;93363;-65
2023/10/18 01:21:21;;;;;;;5.67;4.00;;;1.60;99.90;1.30;100710.00;;;;5003750;27;93987;-65
2023/10/18 01:23:49;;;;;;;4.47;3.80;;;1.50;99.90;1.30;100703.00;;;;4968935;27;94135;-65
2023/10/18 01:26:19;;;;;;;5.43;3.93;;;1.60;99.90;1.40;100705.00;;;;5004464;27;94939;-66
2023/10/18 01:28:46;;;;;;;7.53;4.53;;;1.60;99.90;1.40;100708.00;;;;5006708;27;92619;-64
2023/10/18 01:31:12;;;;;;;5.10;3.60;;;1.70;99.90;1.50;100712.00;;;;4986449;27;93635;-65
2023/10/18 01:33:43;;;;;;;7.50;4.27;;;1.80;99.90;1.50;100703.00;;;;5002089;27;94146;-64
2023/10/18 01:36:20;;;;;;;4.83;3.30;;;2.40;99.90;1.60;100699.00;;;;5005932;27;93010;-63
2023/10/18 01:38:49;;;;;;;4.30;3.37;;;1.90;99.90;1.60;100706.00;;;;4990811;27;92967;-63
2023/10/18 01:41:34;;;;;;;3.80;2.93;;;1.90;99.90;1.70;100704.00;;;;5002466;27;93524;-65
2023/10/18 01:44:07;;;;;;;5.33;3.30;;;2.00;99.90;1.70;100703.00;;;;4991702;27;94673;-65
2023/10/18 01:46:48;;;;;;;3.67;2.73;;;2.00;99.90;1.60;100699.00;;;;4987591;27;94387;-65
2023/10/18 01:49:19;;;;;;;10.43;4.03;;;1.90;99.90;1.60;100703.00;;;;4975291;27;92762;-65
2023/10/18 01:51:47;;;;;;;5.17;3.60;;;1.90;99.90;1.60;100698.00;;;;4995501;27;92387;-66
2023/10/18 01:54:15;;;;;;;5.23;4.17;;;1.80;99.90;1.50;100701.00;;;;5003573;27;92851;-66
2023/10/18 01:56:42;;;;;;;5.80;3.33;;;1.90;99.90;1.40;100702.00;;;;4997148;27;93660;-67
2023/10/18 01:59:13;;;;;;;5.80;4.10;;;1.80;99.90;1.40;100692.00;;;;5002354;27;93790;-67
2023/10/18 02:01:39;;;;;;;7.13;4.13;;;1.70;99.90;1.40;100693.00;;;;5004100;27;96002;-67
2023/10/18 02:04:11;;;;;;;3.57;3.10;;;1.70;99.90;1.40;100696.00;;;;5004593;27;121842;-67
2023/10/18 02:06:37;;;;;;;8.03;5.07;;;1.70;99.90;1.30;100690.00;;;;5004617;27;92890;-67
2023/10/18 02:09:10;;;;;;;6.43;4.30;;;1.60;99.90;1.20;100685.00;;;;5004592;27;92890;-67
2023/10/18 02:11:35;;;;;;;5.47;3.60;;;1.60;99.90;1.20;100689.00;;;;4987664;27;92970;-67
2023/10/18 02:14:02;;;;;;;4.20;3.47;;;1.50;99.90;1.10;100681.00;;;;5004618;27;121438;-67
2023/10/18 02:16:28;;;;;;;4.87;3.40;;;1.40;99.90;1.10;100679.00;;;;4995393;27;92202;-67
2023/10/18 02:18:54;;;;;;;5.37;3.60;;;1.40;99.90;1.10;100664.00;;;;5004807;27;108750;-68
2023/10/18 02:21:23;;;;;;;5.03;3.60;;;1.40;99.90;1.10;100668.00;;;;4990218;27;94661;-67
2023/10/18 02:23:51;;;;;;;4.73;3.60;;;1.40;99.90;1.10;100674.00;;;;4987500;27;95836;-67
2023/10/18 02:26:41;;;;;;;7.07;3.73;;;1.40;99.90;1.00;100658.00;;;;4992686;27;92983;-67
2023/10/18 02:29:12;;;;;;;5.83;3.60;;;1.30;99.90;0.90;100654.00;;;;4981605;27;94694;-68
2023/10/18 02:31:41;;;;;;;6.87;4.03;;;1.30;99.90;0.90;100660.00;;;;4969947;28;93238;-67
2023/10/18 02:34:09;;;;;;;3.67;2.97;;;1.30;99.90;0.90;100655.00;;;;4971565;27;95404;-66
2023/10/18 02:36:46;;;;;;;4.90;3.60;;;1.20;99.90;0.80;100656.00;;;;4986573;27;93000;-66
2023/10/18 02:39:13;;;;;;;4.30;3.27;;;1.20;99.90;0.80;100659.00;;;;4992213;28;93385;-66
2023/10/18 02:41:39;;;;;;;7.20;4.13;;;1.20;99.90;0.80;100651.00;;;;4982857;27;92779;-66
2023/10/18 02:44:10;;;;;;;5.63;4.10;;;1.20;99.90;0.70;100661.00;;;;4990336;27;96205;-66
2023/10/18 02:46:36;;;;;;;3.90;3.60;;;1.10;99.90;0.70;100674.00;;;;4988471;27;92920;-66
2023/10/18 02:49:07;;;;;;;6.53;4.17;;;1.10;99.90;0.70;100667.00;;;;4971350;28;111528;-67
2023/10/18 02:51:33;;;;;;;6.20;3.90;;;1.10;99.90;0.70;100661.00;;;;4979773;28;94992;-66
2023/10/18 02:54:17;;;;;;;4.43;3.73;;;1.00;99.90;0.70;100651.00;;;;4989104;27;121445;-66
2023/10/18 02:56:50;;;;;;;3.80;3.00;;;1.00;99.90;0.60;100655.00;;;;4965953;27;93132;-66
2023/10/18 02:59:24;;;;;;;7.07;3.53;;;1.00;99.90;0.60;100666.00;;;;4977756;27;93131;-66
2023/10/18 03:01:57;;;;;;;5.80;3.73;;;1.00;99.90;0.70;100658.00;;;;4987924;27;94390;-66
2023/10/18 03:04:28;;;;;;;5.33;3.80;;;1.00;99.90;0.70;100655.00;;;;4989315;27;92716;-66
2023/10/18 03:06:54;;;;;;;6.53;4.40;;;1.00;99.90;0.60;100647.00;;;;4990590;27;92299;-66
2023/10/18 03:09:27;;;;;;;6.07;3.70;;;1.00;99.90;0.60;100655.00;;;;4989268;27;92934;-66
2023/10/18 03:11:59;;;;;;;6.33;4.30;;;1.00;99.90;0.60;100643.00;;;;4988164;27;93635;-66
2023/10/18 03:14:41;;;;;;;6.03;3.20;;;1.00;99.90;0.60;100648.00;;;;4985236;27;117107;-66
2023/10/18 03:17:15;;;;;;;5.87;3.87;;;1.00;99.90;0.60;100648.00;;;;4976182;28;92742;-66
2023/10/18 03:19:49;;;;;;;6.87;3.73;;;0.90;99.90;0.60;100653.00;;;;4987427;27;92900;-65
2023/10/18 03:22:22;;;;;;;7.17;4.40;;;0.90;99.90;0.60;100655.00;;;;4981873;27;93845;-66
2023/10/18 03:24:53;;;;;;;5.27;3.37;;;1.00;99.90;0.60;100653.00;;;;4975209;27;94613;-65
2023/10/18 03:27:18;;;;;;;3.67;2.97;;;0.90;99.90;0.70;100649.00;;;;4987383;27;94315;-66
2023/10/18 03:29:45;;;;;;;5.27;3.40;;;1.00;99.90;0.70;100647.00;;;;4989456;27;98498;-67
2023/10/18 03:32:19;;;;;;;5.77;3.37;;;1.20;99.90;0.70;100647.00;;;;5010071;27;93481;-66
2023/10/18 03:34:45;;;;;;;4.10;2.80;;;-0.30;99.90;0.70;100645.00;;;;5006054;27;92967;-65
2023/10/18 03:37:26;;;;;;;8.63;4.80;;;1.00;99.90;0.70;100649.00;;;;5005840;27;101752;-65
2023/10/18 03:39:53;;;;;;;4.43;3.57;;;1.00;99.90;0.70;100645.00;;;;5009377;27;96480;-66
2023/10/18 03:42:31;;;;;;;3.40;3.10;;;1.00;99.90;0.70;100640.00;;;;5010385;27;93877;-65
2023/10/18 03:45:13;;;;;;;4.60;3.67;;;1.10;99.90;0.70;100629.00;;;;5008040;27;93110;-67
2023/10/18 03:47:39;;;;;;;5.73;3.63;;;1.10;99.90;0.70;100637.00;;;;5011065;27;92829;-66
2023/10/18 03:50:14;;;;;;;3.50;3.17;;;1.00;99.90;0.70;100636.00;;;;5002725;27;92948;-66
2023/10/18 03:52:40;;;;;;;4.67;3.57;;;1.10;99.90;0.60;100637.00;;;;4987048;27;93239;-65
2023/10/18 03:55:15;;;;;;;4.70;3.73;;;1.00;99.90;0.60;100632.00;;;;5006115;27;92750;-65
2023/10/18 03:57:41;;;;;;;4.97;3.90;;;1.00;99.90;0.60;100628.00;;;;5009299;27;91942;-66
2023/10/18 04:03:09;;;;;;;9.17;4.00;;;0.90;99.90;0.50;100627.00;;;;4986382;27;93702;-66
2023/10/18 04:08:04;;;;;;;7.20;3.67;;;0.90;99.90;0.40;100617.00;;;;5005646;27;94295;-66
2023/10/18 04:10:32;;;;;;;4.77;3.20;;;0.70;99.90;0.40;100606.00;;;;5003534;27;93635;-66
2023/10/18 04:12:58;;;;;;;4.73;3.50;;;0.70;99.90;0.40;100614.00;;;;5008530;27;93797;-66
2023/10/18 04:15:29;;;;;;;4.20;3.47;;;0.70;99.90;0.30;100620.00;;;;5007697;27;121758;-66
2023/10/18 04:18:56;;;;;;;4.00;3.07;;;0.70;99.90;0.30;100615.00;;;;5004439;27;92986;-65
2023/10/18 04:20:52;;;;;;;4.57;3.40;;;0.70;99.90;0.30;100609.00;;;;4987896;27;93885;-65
2023/10/18 04:23:27;;;;;;;5.90;3.93;;;0.60;99.90;0.30;100605.00;;;;5003755;27;93042;-66
2023/10/18 04:25:57;;;;;;;6.47;3.57;;;0.60;99.90;0.30;100615.00;;;;5004586;27;92883;-65
2023/10/18 04:28:24;;;;;;;4.93;3.30;;;0.70;99.90;0.30;100595.00;;;;4963417;27;93655;-66
2023/10/18 04:30:59;;;;;;;6.50;3.53;;;0.70;99.90;0.30;100590.00;;;;4974922;27;93981;-66
2023/10/18 04:33:40;;;;;;;5.83;4.10;;;0.70;99.90;0.30;100582.00;;;;4990747;27;93395;-66
2023/10/18 04:36:12;;;;;;;6.30;4.30;;;0.60;99.90;0.30;100593.00;;;;4993373;27;93000;-65
2023/10/18 04:38:44;;;;;;;8.07;4.30;;;0.70;99.90;0.30;100589.00;;;;5001375;27;95132;-65
2023/10/18 04:44:00;;;;;;;6.63;3.80;;;0.60;99.90;0.20;100594.00;;;;4999750;27;93332;-65
2023/10/18 04:46:29;;;;;;;5.63;3.50;;;0.60;99.90;0.20;100593.00;;;;4991387;27;93132;-66
2023/10/18 04:51:27;;;;;;;6.17;3.70;;;0.60;99.90;0.20;100574.00;;;;4988687;27;93115;-65
2023/10/18 04:54:35;;;;;;;5.63;4.20;;;0.50;99.90;0.10;100570.00;;;;5003132;27;94698;-65
2023/10/18 04:57:00;;;;;;;5.10;3.50;;;0.50;99.90;0.10;100575.00;;;;4998836;27;93989;-66
2023/10/18 04:59:29;;;;;;;5.23;4.03;;;0.40;99.90;0.10;100565.00;;;;4999195;27;92624;-66
2023/10/18 05:04:24;;;;;;;5.70;4.30;;;0.60;99.90;0.10;100569.00;;;;5004127;27;93208;-66
2023/10/18 05:06:55;;;;;;;3.57;3.23;;;0.50;99.90;0.10;100571.00;;;;5004567;27;92571;-64
2023/10/18 05:09:34;;;;;;;5.83;3.97;;;0.50;99.90;0.10;100573.00;;;;5002333;27;93005;-65
2023/10/18 05:14:50;;;;;;;4.23;3.47;;;0.50;99.90;0.10;100569.00;;;;4989682;27;92180;-66
2023/10/18 05:22:48;;;;;;;8.97;5.37;;;0.40;99.90;0.10;100576.00;;;;5005652;27;93481;-65
2023/10/18 05:27:59;;;;;;;21.73;16.87;;;0.40;99.90;0.10;100574.00;;;;5007929;27;92767;-65
2023/10/18 05:33:16;;;;;;;9.30;5.23;;;0.50;99.90;0.10;100577.00;;;;5007481;27;92876;-64
2023/10/18 05:35:45;;;;;;;8.07;4.40;;;0.50;99.90;0.10;100581.00;;;;5004705;27;92835;-65
2023/10/18 05:43:12;;;;;;;7.07;4.87;;;0.40;99.90;0.10;100588.00;;;;5004416;27;103685;-64
2023/10/18 05:45:40;;;;;;;7.17;4.60;;;0.40;99.90;0.10;100580.00;;;;5005779;27;92941;-65
2023/10/18 05:48:13;;;;;;;7.13;4.53;;;1.50;99.90;0.20;100589.00;;;;4994429;27;93586;-64
2023/10/18 05:50:49;;;;;;;8.97;5.30;;;0.50;99.90;0.20;100589.00;;;;5007274;27;92705;-65
2023/10/18 05:53:24;;;;;;;10.07;6.83;;;0.50;99.90;0.30;100579.00;;;;5004695;27;92835;-65
2023/10/18 05:55:53;;;;;;;10.47;6.10;;;0.60;99.90;0.40;100592.00;;;;5005385;27;93083;-65
2023/10/18 05:58:26;;;;;;;7.80;6.13;;;0.70;99.90;0.50;100593.00;;;;4998105;27;92709;-65
2023/10/18 06:01:02;;;;;;;8.73;6.60;;;0.80;99.90;0.50;100590.00;;;;5006797;27;92749;-65
2023/10/18 06:03:39;;;;;;;10.10;4.77;;;0.90;99.90;0.60;100586.00;;;;4990870;27;93063;-65
2023/10/18 06:06:08;;;;;;;8.27;5.47;;;0.90;99.90;0.60;100588.00;;;;5001099;27;91871;-64
2023/10/18 06:08:34;;;;;;;8.77;4.77;;;1.00;99.90;0.70;100588.00;;;;5003470;27;98379;-64
2023/10/18 06:11:06;;;;;;;7.60;4.43;;;1.00;99.90;0.80;100589.00;;;;5005710;27;92780;-64
2023/10/18 06:13:36;;;;;;;6.10;4.37;;;1.10;99.90;0.80;100578.00;;;;5004019;27;93494;-66
2023/10/18 06:16:18;;;;;;;7.67;4.63;;;1.20;99.90;1.00;100593.00;;;;5010190;27;93237;-67
2023/10/18 06:18:46;;;;;;;9.67;5.83;;;1.30;99.90;1.10;100597.00;;;;5009504;27;92850;-66
2023/10/18 06:21:18;;;;;;;13.30;8.60;;;1.40;99.90;1.20;100595.00;;;;4991290;27;92961;-63
2023/10/18 06:23:56;;;;;;;10.77;5.97;;;1.50;99.90;1.30;100592.00;;;;5006703;27;92691;-63
2023/10/18 06:26:42;;;;;;;7.70;5.27;;;1.60;99.90;1.40;100596.00;;;;5002475;27;93140;-63
2023/10/18 06:29:22;;;;;;;8.07;5.67;;;1.70;99.90;1.60;100594.00;;;;4989667;28;94073;-63
2023/10/18 06:31:54;;;;;;;6.30;5.17;;;1.90;99.90;1.90;100596.00;;;;4990972;27;91948;-63
2023/10/18 06:34:22;;;;;;;9.03;6.27;;;2.10;99.90;2.10;100602.00;;;;4987274;28;92698;-63
2023/10/18 06:36:49;;;;;;;14.00;6.57;;;2.30;99.90;2.30;100609.00;;;;4987907;28;94174;-63
2023/10/18 06:39:34;;;;;;;6.17;4.60;;;2.50;99.90;2.60;100606.00;;;;4986559;27;93708;-63
2023/10/18 06:42:06;;;;;;;6.50;5.10;;;2.70;99.90;2.80;100607.00;;;;4976859;28;92949;-63
2023/10/18 06:44:33;;;;;;;6.00;5.10;;;3.00;99.90;3.00;100590.00;;;;4988920;28;92696;-63
2023/10/18 06:47:01;;;;;;;6.77;5.00;;;3.20;99.90;3.20;100598.00;;;;4985827;28;93419;-63
2023/10/18 06:49:27;;;;;;;7.80;5.20;;;3.50;99.90;3.50;100602.00;;;;4984400;27;92606;-63
2023/10/18 06:51:53;;;;;;;10.87;5.67;;;3.60;99.90;3.70;100603.00;;;;4989226;28;92919;-63
2023/10/18 06:54:31;;;;;;;7.10;5.10;;;4.40;99.90;3.90;100594.00;;;;4970932;28;92883;-64
2023/10/18 06:56:58;;;;;;;6.60;5.20;;;4.00;99.90;4.10;100589.00;;;;4987003;28;92222;-64
2023/10/18 06:59:28;;;;;;;5.90;4.80;;;4.20;99.90;4.40;100596.00;;;;4966821;28;93083;-63
2023/10/18 07:01:59;;;;;;;3.43;3.13;;;4.50;99.90;4.50;100590.00;;;;4987232;28;92688;-64
2023/10/18 07:04:37;;;;;;;4.27;3.33;;;4.70;99.90;4.70;100581.00;;;;4986391;27;93665;-62
2023/10/18 07:07:13;;;;;;;4.67;3.70;;;5.30;99.90;4.90;100578.00;;;;4990844;27;93538;-63
2023/10/18 07:09:42;;;;;;;6.83;3.63;;;5.30;99.90;5.10;100580.00;;;;4985149;28;93348;-63
2023/10/18 07:12:11;;;;;;;6.23;4.17;;;5.30;99.90;5.30;100571.00;;;;4989119;27;92793;-65
2023/10/18 07:14:41;;;;;;;6.43;3.77;;;5.40;99.90;5.50;100569.00;;;;4993484;27;92713;-65
2023/10/18 07:17:09;;;;;;;5.07;3.67;;;6.50;99.90;5.80;100566.00;;;;4987754;27;93794;-64
2023/10/18 07:19:48;;;;;;;5.83;3.67;;;5.80;99.90;6.00;100575.00;;;;4990010;27;94536;-65
2023/10/18 07:22:21;;;;;;;4.40;3.10;;;6.10;99.90;6.30;100562.00;;;;4989192;28;92065;-64
2023/10/18 07:24:54;;;;;;;3.40;3.10;;;6.30;99.90;6.50;100560.00;;;;4987153;28;92744;-64
2023/10/18 07:27:23;;;;;;;6.43;3.57;;;6.60;99.90;6.60;100559.00;;;;4996249;27;93492;-65
2023/10/18 07:29:49;;;;;;;6.00;3.90;;;7.50;99.90;6.80;100564.00;;;;5007713;27;93770;-66
2023/10/18 07:32:20;;;;;;;7.67;3.43;;;6.90;99.90;7.00;100558.00;;;;5007530;27;92718;-65
2023/10/18 07:34:48;;;;;;;3.60;3.17;;;7.10;99.90;7.20;100562.00;;;;4992848;27;92785;-65
2023/10/18 07:37:17;;;;;;;4.77;3.23;;;7.30;99.90;7.40;100559.00;;;;5004015;27;93861;-65
2023/10/18 07:39:56;;;;;;;3.90;3.50;;;7.50;99.90;7.70;100555.00;;;;5006635;27;92653;-65
2023/10/18 07:42:34;;;;;;;5.30;4.20;;;7.70;99.90;7.90;100556.00;;;;4983874;27;93045;-64
2023/10/18 07:45:04;;;;;;;4.63;3.40;;;7.90;99.90;8.10;100549.00;;;;5005991;27;92848;-64
2023/10/18 07:47:37;;;;;;;4.80;3.83;;;8.00;99.90;8.40;100556.00;;;;5009487;27;92930;-65
2023/10/18 07:50:34;;;;;;;3.70;3.20;;;8.30;99.90;8.60;100555.00;;;;5005693;27;93068;-64
2023/10/18 07:52:54;;;;;;;5.67;3.03;;;8.60;99.90;8.90;100546.00;;;;5006945;27;93046;-64
2023/10/18 07:55:21;;;;;;;7.83;4.13;;;8.80;99.90;9.10;100545.00;;;;5009173;27;93437;-64
2023/10/18 07:57:48;;;;;;;3.00;2.70;;;9.10;99.90;9.40;100552.00;;;;5007879;27;113654;-64
2023/10/18 08:00:26;;;;;;;8.10;3.10;;;9.40;99.90;9.60;100545.00;;;;5008060;27;92764;-65
2023/10/18 08:02:52;;;;;;;4.30;3.10;;;9.60;99.90;9.90;100542.00;;;;5004309;27;92493;-66
2023/10/18 08:05:22;;;;;;;3.93;3.03;;;9.80;99.90;10.20;100543.00;;;;5007762;27;93000;-66
2023/10/18 08:07:52;;;;;;;5.13;3.90;;;10.10;99.90;10.50;100537.00;;;;4977661;27;94682;-67
2023/10/18 08:10:22;;;;;;;5.67;3.33;;;10.40;99.90;10.80;100538.00;;;;5007268;27;93727;-67
2023/10/18 08:13:03;;;;;;;5.27;2.87;;;10.80;99.90;11.10;100538.00;;;;5009270;27;92027;-67
2023/10/18 08:15:34;;;;;;;11.03;3.37;;;11.00;99.90;11.50;100527.00;;;;5009607;27;92839;-66
2023/10/18 08:18:00;;;;;;;8.80;3.87;;;11.40;99.90;11.80;100529.00;;;;5008194;27;94070;-66
2023/10/18 08:22:55;;;;;;;7.57;2.43;;;12.00;99.90;12.50;100535.00;;;;5001073;27;104321;-66
2023/10/18 08:25:31;;;;;;;4.63;2.83;;;12.30;99.90;12.70;100527.00;;;;5009547;27;93649;-65
2023/10/18 08:28:01;;;;;;;4.87;3.47;;;13.20;99.90;13.00;100527.00;;;;5007302;27;93718;-65
2023/10/18 08:33:08;;;;;;;4.47;3.07;;;13.10;99.90;13.40;100523.00;;;;5005728;27;92865;-67
2023/10/18 08:35:34;;;;;;;6.37;2.83;;;13.30;99.90;13.50;100514.00;;;;4976588;28;107880;-64
2023/10/18 08:38:03;;;;;;;4.00;2.47;;;13.40;99.90;13.70;100512.00;;;;5002728;27;92651;-64
2023/10/18 08:43:28;;;;;;;5.17;3.73;;;13.80;99.80;14.00;100508.00;;;;4982408;27;92904;-63
2023/10/18 08:45:55;;;;;;;4.63;2.80;;;14.00;99.20;14.30;100510.00;;;;5004305;27;93447;-65
2023/10/18 08:48:28;;;;;;;5.30;3.37;;;14.20;99.20;14.60;100511.00;;;;5005180;27;92962;-64
2023/10/18 08:50:59;;;;;;;9.10;3.00;;;14.40;97.90;14.70;100504.00;;;;4992880;27;92983;-64
2023/10/18 08:53:31;;;;;;;5.03;3.53;;;14.50;96.80;14.80;100498.00;;;;5005468;27;92877;-63
2023/10/18 08:55:57;;;;;;;3.92;2.47;;;14.60;94.20;14.60;100503.00;;;;5002672;27;92753;-63
2023/10/18 08:58:30;;;;;;;4.43;3.73;;;14.60;94.50;14.60;100501.00;;;;4988443;27;92642;-65
2023/10/18 09:03:29;;;;;;;2.20;1.95;;;14.50;94.30;14.50;100493.00;;;;5006458;27;91809;-63
2023/10/18 09:06:07;;;;;;;3.63;2.42;;;15.30;93.70;14.50;100502.00;;;;4997830;27;92846;-65
2023/10/18 09:08:35;;;;;;;5.25;3.08;;;14.40;93.70;14.60;100499.00;;;;5007077;27;94104;-64
2023/10/18 09:11:09;;;;;;;4.72;3.00;;;14.40;92.80;14.60;100498.00;;;;5001256;27;93889;-64
2023/10/18 09:13:42;;;;;;;3.90;2.43;;;14.50;92.60;14.80;100497.00;;;;5008444;27;92865;-64
2023/10/18 09:16:11;;;;;;;6.55;2.67;;;14.60;91.80;15.00;100495.00;;;;5000176;27;92949;-63
2023/10/18 09:18:37;;;;;;;3.28;2.25;;;14.80;91.90;15.20;100502.00;;;;4987331;27;92891;-64
2023/10/18 09:23:35;;;;;;;2.45;2.10;;;15.00;89.00;15.30;100492.00;;;;5006181;27;92865;-65
2023/10/18 09:28:33;;;;;;;2.42;2.03;;;16.30;89.30;15.60;100487.00;;;;4984808;27;92560;-64
2023/10/18 09:31:21;;;;;;;3.13;2.38;;;15.40;84.60;15.60;100475.00;;;;5011015;27;93237;-64
2023/10/18 09:33:51;;;;;;;2.80;1.85;;;15.40;82.30;15.60;100482.00;;;;5007363;27;93147;-64
2023/10/18 09:36:19;;;;;;;3.25;1.98;;;15.40;80.80;15.50;100483.00;;;;5006639;27;94118;-65
2023/10/18 09:38:48;;;;;;;4.95;2.20;;;15.30;80.00;15.60;100487.00;;;;5008579;27;92894;-66
2023/10/18 09:41:15;;;;;;;4.20;2.28;;;15.40;82.30;15.80;100476.00;;;;4987001;27;94435;-65
2023/10/18 09:43:41;;;;;;;2.70;2.17;;;15.90;80.00;15.90;100479.00;;;;5008297;27;92815;-65
2023/10/18 09:46:08;;;;;;;2.10;1.90;;;15.70;77.10;16.00;100487.00;;;;5003749;27;100858;-64
2023/10/18 09:48:38;;;;;;;3.53;1.98;;;15.70;76.10;16.00;100486.00;;;;5003354;27;94042;-65
2023/10/18 09:51:09;;;;;;;2.42;1.83;;;15.70;73.30;16.00;100482.00;;;;5004498;27;93827;-65
2023/10/18 09:53:48;;;;;;;3.72;2.08;;;15.70;75.10;16.10;100489.00;;;;4990086;27;92172;-65
2023/10/18 09:56:19;;;;;;;1.88;1.67;;;15.80;75.60;16.30;100478.00;;;;4985669;27;92905;-66
2023/10/18 09:58:49;;;;;;;4.13;2.53;;;16.00;75.40;16.50;100480.00;;;;5006148;27;95457;-65
2023/10/18 10:01:25;;;;;;;4.13;2.40;;;16.20;73.30;16.40;100488.00;;;;5000817;27;93934;-65
2023/10/18 10:03:56;;;;;;;2.70;1.75;;;16.20;70.30;16.30;100473.00;;;;4987747;28;93113;-65
2023/10/18 10:06:25;;;;;;;2.92;2.08;;;16.10;70.80;16.30;100472.00;;;;5000908;27;92857;-65
2023/10/18 10:09:11;;;;;;;4.00;2.28;;;16.20;70.40;16.30;100475.00;;;;4969885;27;95210;-65
2023/10/18 10:11:43;;;;;;;2.80;1.65;;;16.10;69.80;16.40;100460.00;;;;5005811;27;93425;-65
2023/10/18 10:14:11;;;;;;;2.83;2.47;;;16.10;69.70;16.50;100464.00;;;;5005909;27;92446;-65
2023/10/18 10:16:45;;;;;;;2.28;1.92;;;16.20;70.80;16.60;100460.00;;;;5005241;27;92766;-65
2023/10/18 10:19:12;;;;;;;2.20;1.90;;;16.20;70.00;16.70;100456.00;;;;4983889;27;93037;-65
2023/10/18 10:21:40;;;;;;;3.58;2.03;;;16.30;69.50;16.70;100454.00;;;;4992537;27;92936;-65
2023/10/18 10:30:05;;;;;;;2.70;2.20;;;16.70;69.70;17.10;100447.00;;;;5001938;27;92942;-67
2023/10/18 10:32:35;;;;;;;3.58;3.03;;;16.80;68.30;17.10;100451.00;;;;5004402;27;93007;-64
2023/10/18 10:35:15;;;;;;;2.38;1.38;;;16.90;67.50;17.20;100452.00;;;;5003313;27;108364;-65
2023/10/18 10:38:14;;;;;;;5.07;2.10;;;16.90;68.30;17.40;100444.00;;;;5003784;27;92735;-65
2023/10/18 10:40:44;;;;;;;4.30;2.33;;;17.00;67.50;17.20;100442.00;;;;5004897;27;93264;-65
2023/10/18 10:43:11;;;;;;;4.13;1.85;;;17.00;65.80;17.20;100435.00;;;;4991403;27;93028;-64
2023/10/18 10:48:17;;;;;;;2.22;2.13;;;17.10;67.30;17.50;100441.00;;;;5000624;27;93089;-64
2023/10/18 10:50:53;;;;;;;3.13;2.20;;;17.20;66.50;17.70;100432.00;;;;5003531;27;93953;-65
2023/10/18 10:53:43;;;;;;;5.00;2.65;;;17.30;65.70;18.00;100424.00;;;;5003968;27;93752;-65
2023/10/18 10:56:17;;;;;;;2.97;2.40;;;17.50;67.00;18.40;100417.00;;;;4990027;27;92661;-66
2023/10/18 10:58:54;;;;;;;7.82;2.28;;;17.90;66.00;18.50;100416.00;;;;5007113;27;94628;-64
2023/10/18 11:01:31;;;;;;;4.28;1.73;;;18.00;63.50;18.50;100420.00;;;;5008806;27;93685;-65
2023/10/18 11:03:59;;;;;;;2.50;1.95;;;18.10;63.20;18.60;100411.00;;;;5005540;27;94126;-65
2023/10/18 11:06:32;;;;;;;2.65;2.05;;;18.30;63.60;18.60;100403.00;;;;4990557;27;92753;-64
2023/10/18 11:08:58;;;;;;;2.80;2.25;;;18.40;60.80;18.50;100396.00;;;;5009369;27;92590;-64
2023/10/18 11:11:26;;;;;;;2.13;1.88;;;18.20;60.00;18.60;100397.00;;;;5006615;27;100721;-64
2023/10/18 11:13:52;;;;;;;4.00;1.77;;;18.20;60.30;18.80;100394.00;;;;5006945;27;92717;-64
2023/10/18 11:16:20;;;;;;;3.05;2.22;;;18.40;60.80;18.90;100392.00;;;;5007948;27;93483;-63
2023/10/18 11:18:52;;;;;;;2.72;1.60;;;18.40;59.10;18.90;100393.00;;;;5007058;27;93720;-63
2023/10/18 11:21:22;;;;;;;8.38;2.42;;;18.40;59.00;18.80;100388.00;;;;5007493;27;96223;-63
2023/10/18 11:23:57;;;;;;;2.42;1.80;;;18.50;58.80;18.70;100379.00;;;;5005914;27;92569;-64
2023/10/18 11:26:25;;;;;;;4.40;2.22;;;18.40;58.10;18.30;100384.00;;;;5005531;27;92893;-64
2023/10/18 11:28:58;;;;;;;3.70;2.65;;;18.20;57.60;18.10;100379.00;;;;5009937;27;92682;-64
2023/10/18 11:31:28;;;;;;;1.83;1.65;;;18.00;58.00;18.00;100377.00;;;;4991361;27;93065;-65
2023/10/18 11:34:00;;;;;;;3.65;1.92;;;17.80;58.50;18.20;100377.00;;;;5008127;27;93742;-63
2023/10/18 11:36:27;;;;;;;1.95;1.65;;;17.80;59.20;18.30;100363.00;;;;4992244;27;93976;-63
2023/10/18 11:41:38;;;;;;;2.88;2.00;;;18.10;59.00;18.70;100359.00;;;;5008167;27;92867;-64
2023/10/18 11:44:10;;;;;;;2.03;1.83;;;18.30;58.90;18.70;100351.00;;;;5008485;27;93828;-63
2023/10/18 11:46:51;;;;;;;3.35;2.13;;;18.30;57.70;18.70;100346.00;;;;5009444;27;92801;-64
2023/10/18 11:49:19;;;;;;;5.72;2.13;;;18.30;57.50;18.70;100344.00;;;;5007348;27;93210;-64
2023/10/18 11:51:51;;;;;;;2.25;1.73;;;18.30;57.60;18.70;100335.00;;;;5008702;27;93193;-65
2023/10/18 11:54:36;;;;;;;4.68;2.47;;;18.30;57.40;18.60;100333.00;;;;5007842;27;93533;-64
2023/10/18 11:57:06;;;;;;;6.72;2.38;;;18.30;57.80;18.60;100326.00;;;;5010110;27;92990;-64
2023/10/18 11:59:57;;;;;;;3.10;1.73;;;18.30;57.60;18.70;100316.00;;;;5006063;27;92579;-63
2023/10/18 12:02:28;;;;;;;5.82;2.50;;;18.40;57.60;18.70;100318.00;;;;5007757;27;93348;-64
2023/10/18 12:04:55;;;;;;;3.95;1.77;;;18.40;57.30;18.60;100308.00;;;;5009286;27;93182;-64
2023/10/18 12:07:22;;;;;;;2.67;2.13;;;18.30;56.80;18.60;100305.00;;;;4997179;27;92870;-65
2023/10/18 12:09:52;;;;;;;2.15;1.52;;;18.30;56.60;18.80;100300.00;;;;4994060;27;93664;-65
2023/10/18 12:12:24;;;;;;;2.35;1.35;;;18.30;57.20;19.00;100308.00;;;;5007239;27;93566;-64
2023/10/18 12:14:50;;;;;;;1.70;1.60;;;18.50;56.60;19.00;100300.00;;;;5011271;27;93321;-64